sensor_id;sensor_type;location;lat;lon;timestamp;temperature;humidity
21502;DHT22;27639;48.674;9.242;2022-08-18T00:00:47;23.90;56.30
21502;DHT22;27639;48.674;9.242;2022-08-18T00:03:13;23.90;56.30
21502;DHT22;27639;48.674;9.242;2022-08-18T00:05:39;23.90;56.20
21502;DHT22;27639;48.674;9.242;2022-08-18T00:08:05;23.90;56.20
21502;DHT22;27639;48.674;9.242;2022-08-18T00:10:31;23.90;56.10
21502;DHT22;27639;48.674;9.242;2022-08-18T00:12:57;23.90;56.20
21502;DHT22;27639;48.674;9.242;2022-08-18T00:15:23;23.90;56.10
21502;DHT22;27639;48.674;9.242;2022-08-18T00:17:48;23.80;56.10
21502;DHT22;27639;48.674;9.242;2022-08-18T00:20:20;23.80;56.20
21502;DHT22;27639;48.674;9.242;2022-08-18T00:22:46;23.80;56.30
21502;DHT22;27639;48.674;9.242;2022-08-18T00:25:14;23.80;56.40
21502;DHT22;27639;48.674;9.242;2022-08-18T00:27:39;23.70;56.30
21502;DHT22;27639;48.674;9.242;2022-08-18T00:30:09;23.70;56.40
21502;DHT22;27639;48.674;9.242;2022-08-18T00:32:38;23.70;56.30
21502;DHT22;27639;48.674;9.242;2022-08-18T00:35:11;23.70;56.40
21502;DHT22;27639;48.674;9.242;2022-08-18T00:37:41;23.70;56.40
21502;DHT22;27639;48.674;9.242;2022-08-18T00:40:11;23.70;56.60
21502;DHT22;27639;48.674;9.242;2022-08-18T00:42:47;23.70;56.80
21502;DHT22;27639;48.674;9.242;2022-08-18T00:45:17;23.80;56.80
21502;DHT22;27639;48.674;9.242;2022-08-18T00:47:44;23.80;56.80
21502;DHT22;27639;48.674;9.242;2022-08-18T00:50:17;23.80;57.10
21502;DHT22;27639;48.674;9.242;2022-08-18T00:53:00;23.80;56.90
21502;DHT22;27639;48.674;9.242;2022-08-18T00:55:28;23.70;56.80
21502;DHT22;27639;48.674;9.242;2022-08-18T01:00:40;23.60;57.30
21502;DHT22;27639;48.674;9.242;2022-08-18T01:03:15;23.60;57.40
21502;DHT22;27639;48.674;9.242;2022-08-18T01:05:47;23.70;57.20
21502;DHT22;27639;48.674;9.242;2022-08-18T01:08:15;23.60;57.20
21502;DHT22;27639;48.674;9.242;2022-08-18T01:10:42;23.60;57.30
21502;DHT22;27639;48.674;9.242;2022-08-18T01:13:08;23.60;57.30
21502;DHT22;27639;48.674;9.242;2022-08-18T01:15:35;23.60;57.40
21502;DHT22;27639;48.674;9.242;2022-08-18T01:18:08;23.60;57.70
21502;DHT22;27639;48.674;9.242;2022-08-18T01:23:50;23.50;57.70
21502;DHT22;27639;48.674;9.242;2022-08-18T01:26:17;23.50;57.70
21502;DHT22;27639;48.674;9.242;2022-08-18T01:28:45;23.50;58.00
21502;DHT22;27639;48.674;9.242;2022-08-18T01:31:22;23.50;58.10
21502;DHT22;27639;48.674;9.242;2022-08-18T01:33:54;23.50;58.30
21502;DHT22;27639;48.674;9.242;2022-08-18T01:36:21;23.30;58.30
21502;DHT22;27639;48.674;9.242;2022-08-18T01:38:51;23.20;58.40
21502;DHT22;27639;48.674;9.242;2022-08-18T01:41:18;23.20;58.50
21502;DHT22;27639;48.674;9.242;2022-08-18T01:43:45;23.20;58.90
21502;DHT22;27639;48.674;9.242;2022-08-18T01:46:11;23.20;58.60
21502;DHT22;27639;48.674;9.242;2022-08-18T01:48:37;23.20;58.60
21502;DHT22;27639;48.674;9.242;2022-08-18T01:51:06;23.30;58.80
21502;DHT22;27639;48.674;9.242;2022-08-18T01:53:32;23.30;58.90
21502;DHT22;27639;48.674;9.242;2022-08-18T01:55:58;23.20;58.70
21502;DHT22;27639;48.674;9.242;2022-08-18T01:58:24;23.20;58.90
21502;DHT22;27639;48.674;9.242;2022-08-18T02:00:54;23.20;59.00
21502;DHT22;27639;48.674;9.242;2022-08-18T02:03:24;23.20;59.20
21502;DHT22;27639;48.674;9.242;2022-08-18T02:05:56;23.10;59.10
21502;DHT22;27639;48.674;9.242;2022-08-18T02:08:22;23.10;59.10
21502;DHT22;27639;48.674;9.242;2022-08-18T02:10:48;23.10;59.10
21502;DHT22;27639;48.674;9.242;2022-08-18T02:13:13;23.10;59.20
21502;DHT22;27639;48.674;9.242;2022-08-18T02:15:39;23.00;59.30
21502;DHT22;27639;48.674;9.242;2022-08-18T02:18:05;23.00;59.50
21502;DHT22;27639;48.674;9.242;2022-08-18T02:20:30;23.00;59.50
21502;DHT22;27639;48.674;9.242;2022-08-18T02:22:56;22.90;59.40
21502;DHT22;27639;48.674;9.242;2022-08-18T02:25:23;22.90;59.60
21502;DHT22;27639;48.674;9.242;2022-08-18T02:27:49;22.90;60.20
21502;DHT22;27639;48.674;9.242;2022-08-18T02:30:17;22.80;59.90
21502;DHT22;27639;48.674;9.242;2022-08-18T02:32:43;22.90;59.20
21502;DHT22;27639;48.674;9.242;2022-08-18T02:35:09;22.90;59.10
21502;DHT22;27639;48.674;9.242;2022-08-18T02:37:41;23.00;59.00
21502;DHT22;27639;48.674;9.242;2022-08-18T02:40:08;23.00;58.70
21502;DHT22;27639;48.674;9.242;2022-08-18T02:42:34;23.00;58.70
21502;DHT22;27639;48.674;9.242;2022-08-18T02:45:00;23.00;58.60
21502;DHT22;27639;48.674;9.242;2022-08-18T02:47:25;23.00;58.60
21502;DHT22;27639;48.674;9.242;2022-08-18T02:49:51;22.90;58.70
21502;DHT22;27639;48.674;9.242;2022-08-18T02:52:16;22.80;58.50
21502;DHT22;27639;48.674;9.242;2022-08-18T02:54:42;22.90;58.70
21502;DHT22;27639;48.674;9.242;2022-08-18T02:57:09;22.90;58.70
21502;DHT22;27639;48.674;9.242;2022-08-18T02:59:36;23.00;58.70
21502;DHT22;27639;48.674;9.242;2022-08-18T03:02:04;22.90;58.50
21502;DHT22;27639;48.674;9.242;2022-08-18T03:04:31;22.90;58.60
21502;DHT22;27639;48.674;9.242;2022-08-18T03:07:00;23.00;59.20
21502;DHT22;27639;48.674;9.242;2022-08-18T03:09:26;23.00;58.40
21502;DHT22;27639;48.674;9.242;2022-08-18T03:11:52;23.00;58.40
21502;DHT22;27639;48.674;9.242;2022-08-18T03:14:18;23.10;58.50
21502;DHT22;27639;48.674;9.242;2022-08-18T03:16:46;23.00;58.40
21502;DHT22;27639;48.674;9.242;2022-08-18T03:19:12;23.00;58.40
21502;DHT22;27639;48.674;9.242;2022-08-18T03:21:42;23.00;58.60
21502;DHT22;27639;48.674;9.242;2022-08-18T03:24:08;22.90;58.60
21502;DHT22;27639;48.674;9.242;2022-08-18T03:26:38;22.90;58.70
21502;DHT22;27639;48.674;9.242;2022-08-18T03:29:04;22.90;58.70
21502;DHT22;27639;48.674;9.242;2022-08-18T03:31:30;22.90;58.70
21502;DHT22;27639;48.674;9.242;2022-08-18T03:33:57;22.90;58.70
21502;DHT22;27639;48.674;9.242;2022-08-18T03:36:26;22.90;59.40
21502;DHT22;27639;48.674;9.242;2022-08-18T03:38:52;22.90;58.60
21502;DHT22;27639;48.674;9.242;2022-08-18T03:41:21;23.00;58.50
21502;DHT22;27639;48.674;9.242;2022-08-18T03:43:50;23.00;58.40
21502;DHT22;27639;48.674;9.242;2022-08-18T03:46:18;22.90;58.40
21502;DHT22;27639;48.674;9.242;2022-08-18T03:48:44;23.00;58.50
21502;DHT22;27639;48.674;9.242;2022-08-18T03:51:26;22.90;58.40
21502;DHT22;27639;48.674;9.242;2022-08-18T03:53:55;22.90;58.30
21502;DHT22;27639;48.674;9.242;2022-08-18T03:56:25;22.80;58.30
21502;DHT22;27639;48.674;9.242;2022-08-18T03:58:54;22.90;58.40
21502;DHT22;27639;48.674;9.242;2022-08-18T04:01:23;22.90;58.40
21502;DHT22;27639;48.674;9.242;2022-08-18T04:03:52;22.90;58.50
21502;DHT22;27639;48.674;9.242;2022-08-18T04:06:25;22.90;58.40
21502;DHT22;27639;48.674;9.242;2022-08-18T04:08:52;22.80;58.50
21502;DHT22;27639;48.674;9.242;2022-08-18T04:11:18;22.70;58.50
21502;DHT22;27639;48.674;9.242;2022-08-18T04:13:43;22.70;58.70
21502;DHT22;27639;48.674;9.242;2022-08-18T04:16:09;22.60;58.70
21502;DHT22;27639;48.674;9.242;2022-08-18T04:18:36;22.60;58.80
21502;DHT22;27639;48.674;9.242;2022-08-18T04:21:04;22.50;58.70
21502;DHT22;27639;48.674;9.242;2022-08-18T04:23:33;22.50;58.80
21502;DHT22;27639;48.674;9.242;2022-08-18T04:25:59;22.60;58.90
21502;DHT22;27639;48.674;9.242;2022-08-18T04:28:26;22.60;58.90
21502;DHT22;27639;48.674;9.242;2022-08-18T04:30:53;22.60;58.70
21502;DHT22;27639;48.674;9.242;2022-08-18T04:33:19;22.60;58.70
21502;DHT22;27639;48.674;9.242;2022-08-18T04:35:45;22.70;58.70
21502;DHT22;27639;48.674;9.242;2022-08-18T04:38:12;22.70;58.70
21502;DHT22;27639;48.674;9.242;2022-08-18T04:40:38;22.70;58.70
21502;DHT22;27639;48.674;9.242;2022-08-18T04:43:06;22.60;58.70
21502;DHT22;27639;48.674;9.242;2022-08-18T04:45:36;22.60;58.80
21502;DHT22;27639;48.674;9.242;2022-08-18T04:48:04;22.60;58.90
21502;DHT22;27639;48.674;9.242;2022-08-18T04:50:31;22.60;58.90
21502;DHT22;27639;48.674;9.242;2022-08-18T04:52:56;22.60;58.90
21502;DHT22;27639;48.674;9.242;2022-08-18T04:55:50;22.60;59.00
21502;DHT22;27639;48.674;9.242;2022-08-18T04:58:17;22.50;59.20
21502;DHT22;27639;48.674;9.242;2022-08-18T05:00:44;22.60;59.20
21502;DHT22;27639;48.674;9.242;2022-08-18T05:03:10;22.70;59.10
21502;DHT22;27639;48.674;9.242;2022-08-18T05:05:36;22.70;59.20
21502;DHT22;27639;48.674;9.242;2022-08-18T05:08:02;22.70;59.70
21502;DHT22;27639;48.674;9.242;2022-08-18T05:10:28;22.70;58.90
21502;DHT22;27639;48.674;9.242;2022-08-18T05:12:53;22.80;58.90
21502;DHT22;27639;48.674;9.242;2022-08-18T05:15:20;22.70;58.90
21502;DHT22;27639;48.674;9.242;2022-08-18T05:17:45;22.80;59.10
21502;DHT22;27639;48.674;9.242;2022-08-18T05:20:11;22.70;59.20
21502;DHT22;27639;48.674;9.242;2022-08-18T05:22:38;22.80;59.20
21502;DHT22;27639;48.674;9.242;2022-08-18T05:25:09;22.80;59.30
21502;DHT22;27639;48.674;9.242;2022-08-18T05:27:40;22.80;59.20
21502;DHT22;27639;48.674;9.242;2022-08-18T05:30:08;22.80;59.20
21502;DHT22;27639;48.674;9.242;2022-08-18T05:32:38;22.90;59.30
21502;DHT22;27639;48.674;9.242;2022-08-18T05:35:12;22.90;59.20
21502;DHT22;27639;48.674;9.242;2022-08-18T05:38:05;23.00;59.10
21502;DHT22;27639;48.674;9.242;2022-08-18T05:40:36;23.00;59.00
21502;DHT22;27639;48.674;9.242;2022-08-18T05:43:03;23.00;59.00
21502;DHT22;27639;48.674;9.242;2022-08-18T05:45:29;23.10;59.00
21502;DHT22;27639;48.674;9.242;2022-08-18T05:47:58;23.20;59.10
21502;DHT22;27639;48.674;9.242;2022-08-18T05:50:25;23.20;58.90
21502;DHT22;27639;48.674;9.242;2022-08-18T05:53:08;23.20;58.90
21502;DHT22;27639;48.674;9.242;2022-08-18T05:55:39;23.20;58.70
21502;DHT22;27639;48.674;9.242;2022-08-18T05:58:29;23.20;58.90
21502;DHT22;27639;48.674;9.242;2022-08-18T06:01:03;23.20;58.70
21502;DHT22;27639;48.674;9.242;2022-08-18T06:03:39;23.30;58.80
21502;DHT22;27639;48.674;9.242;2022-08-18T06:06:11;23.20;58.90
21502;DHT22;27639;48.674;9.242;2022-08-18T06:08:43;23.40;59.10
21502;DHT22;27639;48.674;9.242;2022-08-18T06:11:09;23.50;59.30
21502;DHT22;27639;48.674;9.242;2022-08-18T06:13:39;23.50;59.30
21502;DHT22;27639;48.674;9.242;2022-08-18T06:37:57;23.40;59.50
21502;DHT22;27639;48.674;9.242;2022-08-18T06:40:47;23.50;59.40
21502;DHT22;27639;48.674;9.242;2022-08-18T06:43:14;23.50;59.40
21502;DHT22;27639;48.674;9.242;2022-08-18T06:45:42;23.60;59.20
21502;DHT22;27639;48.674;9.242;2022-08-18T06:51:26;23.70;58.90
21502;DHT22;27639;48.674;9.242;2022-08-18T06:53:59;23.70;58.90
21502;DHT22;27639;48.674;9.242;2022-08-18T06:59:33;23.70;59.00
21502;DHT22;27639;48.674;9.242;2022-08-18T07:02:19;23.50;58.80
21502;DHT22;27639;48.674;9.242;2022-08-18T07:07:40;23.50;58.90
21502;DHT22;27639;48.674;9.242;2022-08-18T07:10:28;23.50;59.00
21502;DHT22;27639;48.674;9.242;2022-08-18T07:13:29;23.50;58.90
21502;DHT22;27639;48.674;9.242;2022-08-18T07:16:14;23.50;58.90
21502;DHT22;27639;48.674;9.242;2022-08-18T07:18:40;23.50;59.00
21502;DHT22;27639;48.674;9.242;2022-08-18T07:21:08;23.50;59.10
21502;DHT22;27639;48.674;9.242;2022-08-18T07:23:38;23.50;59.10
21502;DHT22;27639;48.674;9.242;2022-08-18T07:26:16;23.60;58.90
21502;DHT22;27639;48.674;9.242;2022-08-18T07:28:50;23.70;58.90
21502;DHT22;27639;48.674;9.242;2022-08-18T07:31:22;23.70;58.90
21502;DHT22;27639;48.674;9.242;2022-08-18T07:33:56;23.70;59.00
21502;DHT22;27639;48.674;9.242;2022-08-18T07:36:26;23.80;58.80
21502;DHT22;27639;48.674;9.242;2022-08-18T07:39:21;23.80;58.60
21502;DHT22;27639;48.674;9.242;2022-08-18T07:41:52;23.90;58.60
21502;DHT22;27639;48.674;9.242;2022-08-18T07:47:02;23.80;59.40
21502;DHT22;27639;48.674;9.242;2022-08-18T07:49:34;23.90;58.80
21502;DHT22;27639;48.674;9.242;2022-08-18T07:52:19;23.90;58.70
21502;DHT22;27639;48.674;9.242;2022-08-18T08:00:24;23.70;59.10
21502;DHT22;27639;48.674;9.242;2022-08-18T08:05:47;23.80;59.10
21502;DHT22;27639;48.674;9.242;2022-08-18T08:08:36;23.80;59.10
21502;DHT22;27639;48.674;9.242;2022-08-18T08:23:00;23.90;58.90
21502;DHT22;27639;48.674;9.242;2022-08-18T08:31:23;23.80;58.90
21502;DHT22;27639;48.674;9.242;2022-08-18T08:36:33;23.70;59.60
21502;DHT22;27639;48.674;9.242;2022-08-18T08:46:51;23.60;59.50
21502;DHT22;27639;48.674;9.242;2022-08-18T08:54:57;23.80;59.80
21502;DHT22;27639;48.674;9.242;2022-08-18T08:57:30;23.90;59.80
21502;DHT22;27639;48.674;9.242;2022-08-18T08:59:59;24.00;59.50
21502;DHT22;27639;48.674;9.242;2022-08-18T09:02:42;24.20;59.70
21502;DHT22;27639;48.674;9.242;2022-08-18T09:05:25;24.30;59.30
21502;DHT22;27639;48.674;9.242;2022-08-18T09:13:54;24.70;58.40
21502;DHT22;27639;48.674;9.242;2022-08-18T09:21:42;25.00;57.70
21502;DHT22;27639;48.674;9.242;2022-08-18T09:24:21;25.00;57.70
21502;DHT22;27639;48.674;9.242;2022-08-18T09:26:51;25.10;57.70
21502;DHT22;27639;48.674;9.242;2022-08-18T09:29:25;25.10;57.90
21502;DHT22;27639;48.674;9.242;2022-08-18T09:37:46;25.30;57.70
21502;DHT22;27639;48.674;9.242;2022-08-18T09:40:34;25.50;58.10
21502;DHT22;27639;48.674;9.242;2022-08-18T09:43:36;25.50;58.10
21502;DHT22;27639;48.674;9.242;2022-08-18T09:46:05;25.50;58.00
21502;DHT22;27639;48.674;9.242;2022-08-18T09:48:37;25.50;58.10
21502;DHT22;27639;48.674;9.242;2022-08-18T09:57:04;26.10;57.00
21502;DHT22;27639;48.674;9.242;2022-08-18T09:58:58;26.20;56.90
21502;DHT22;27639;48.674;9.242;2022-08-18T10:06:44;26.60;56.20
21502;DHT22;27639;48.674;9.242;2022-08-18T10:09:22;26.70;56.10
21502;DHT22;27639;48.674;9.242;2022-08-18T10:20:33;26.60;55.00
21502;DHT22;27639;48.674;9.242;2022-08-18T10:23:00;26.70;55.00
21502;DHT22;27639;48.674;9.242;2022-08-18T10:25:52;26.80;55.40
21502;DHT22;27639;48.674;9.242;2022-08-18T10:29:00;26.90;55.20
21502;DHT22;27639;48.674;9.242;2022-08-18T10:31:24;26.90;54.80
21502;DHT22;27639;48.674;9.242;2022-08-18T10:34:06;26.70;54.70
21502;DHT22;27639;48.674;9.242;2022-08-18T10:36:43;26.80;55.00
21502;DHT22;27639;48.674;9.242;2022-08-18T10:39:13;26.80;54.80
21502;DHT22;27639;48.674;9.242;2022-08-18T10:44:21;27.20;53.30
21502;DHT22;27639;48.674;9.242;2022-08-18T10:46:47;27.30;53.20
21502;DHT22;27639;48.674;9.242;2022-08-18T10:49:18;27.20;53.00
21502;DHT22;27639;48.674;9.242;2022-08-18T10:54:37;27.30;53.20
21502;DHT22;27639;48.674;9.242;2022-08-18T11:05:38;27.70;52.20
21502;DHT22;27639;48.674;9.242;2022-08-18T11:08:05;27.70;52.20
21502;DHT22;27639;48.674;9.242;2022-08-18T11:10:41;27.60;52.20
21502;DHT22;27639;48.674;9.242;2022-08-18T11:16:12;27.70;52.30
21502;DHT22;27639;48.674;9.242;2022-08-18T11:18:45;27.70;51.90
21502;DHT22;27639;48.674;9.242;2022-08-18T11:21:23;27.80;51.70
21502;DHT22;27639;48.674;9.242;2022-08-18T11:24:06;27.80;51.10
21502;DHT22;27639;48.674;9.242;2022-08-18T11:26:34;27.80;50.90
21502;DHT22;27639;48.674;9.242;2022-08-18T11:32:03;27.90;51.00
21502;DHT22;27639;48.674;9.242;2022-08-18T11:34:44;27.90;50.80
21502;DHT22;27639;48.674;9.242;2022-08-18T11:37:41;28.00;50.70
21502;DHT22;27639;48.674;9.242;2022-08-18T11:43:09;28.10;50.60
21502;DHT22;27639;48.674;9.242;2022-08-18T11:48:18;28.20;49.90
21502;DHT22;27639;48.674;9.242;2022-08-18T11:58:49;28.30;49.50
21502;DHT22;27639;48.674;9.242;2022-08-18T12:07:16;28.30;49.40
21502;DHT22;27639;48.674;9.242;2022-08-18T12:10:23;28.30;49.50
21502;DHT22;27639;48.674;9.242;2022-08-18T12:12:51;28.40;49.20
21502;DHT22;27639;48.674;9.242;2022-08-18T12:17:44;28.40;48.70
21502;DHT22;27639;48.674;9.242;2022-08-18T12:20:12;28.30;49.30
21502;DHT22;27639;48.674;9.242;2022-08-18T12:22:40;28.30;49.00
21502;DHT22;27639;48.674;9.242;2022-08-18T12:25:11;28.30;48.70
21502;DHT22;27639;48.674;9.242;2022-08-18T12:27:37;28.30;48.40
21502;DHT22;27639;48.674;9.242;2022-08-18T12:30:04;28.30;49.20
21502;DHT22;27639;48.674;9.242;2022-08-18T12:32:33;28.30;48.50
21502;DHT22;27639;48.674;9.242;2022-08-18T12:34:59;28.40;48.30
21502;DHT22;27639;48.674;9.242;2022-08-18T12:37:27;28.50;48.10
21502;DHT22;27639;48.674;9.242;2022-08-18T12:39:54;28.50;48.10
21502;DHT22;27639;48.674;9.242;2022-08-18T12:42:21;28.50;48.00
21502;DHT22;27639;48.674;9.242;2022-08-18T12:44:47;28.50;48.00
21502;DHT22;27639;48.674;9.242;2022-08-18T12:47:16;28.50;47.90
21502;DHT22;27639;48.674;9.242;2022-08-18T12:49:42;28.60;47.40
21502;DHT22;27639;48.674;9.242;2022-08-18T12:52:08;28.60;47.50
21502;DHT22;27639;48.674;9.242;2022-08-18T12:54:34;28.60;47.20
21502;DHT22;27639;48.674;9.242;2022-08-18T12:57:01;28.70;46.90
21502;DHT22;27639;48.674;9.242;2022-08-18T12:59:28;28.70;47.10
21502;DHT22;27639;48.674;9.242;2022-08-18T13:01:53;28.70;47.10
21502;DHT22;27639;48.674;9.242;2022-08-18T13:04:19;28.70;47.10
21502;DHT22;27639;48.674;9.242;2022-08-18T13:06:53;28.70;46.50
21502;DHT22;27639;48.674;9.242;2022-08-18T13:09:23;28.70;46.80
21502;DHT22;27639;48.674;9.242;2022-08-18T13:11:49;28.70;46.80
21502;DHT22;27639;48.674;9.242;2022-08-18T13:14:15;28.80;46.60
21502;DHT22;27639;48.674;9.242;2022-08-18T13:16:42;28.80;46.60
21502;DHT22;27639;48.674;9.242;2022-08-18T13:19:11;28.80;46.60
21502;DHT22;27639;48.674;9.242;2022-08-18T13:21:37;28.80;46.40
21502;DHT22;27639;48.674;9.242;2022-08-18T13:24:03;28.90;46.50
21502;DHT22;27639;48.674;9.242;2022-08-18T13:26:32;28.90;46.40
21502;DHT22;27639;48.674;9.242;2022-08-18T13:28:59;29.00;46.40
21502;DHT22;27639;48.674;9.242;2022-08-18T13:31:27;29.10;47.00
21502;DHT22;27639;48.674;9.242;2022-08-18T13:33:54;29.10;46.00
21502;DHT22;27639;48.674;9.242;2022-08-18T13:36:24;29.10;46.10
21502;DHT22;27639;48.674;9.242;2022-08-18T13:38:50;29.20;45.60
21502;DHT22;27639;48.674;9.242;2022-08-18T13:41:19;29.20;45.50
21502;DHT22;27639;48.674;9.242;2022-08-18T13:43:46;29.20;45.60
21502;DHT22;27639;48.674;9.242;2022-08-18T13:46:14;29.20;45.50
21502;DHT22;27639;48.674;9.242;2022-08-18T13:48:41;29.30;45.70
21502;DHT22;27639;48.674;9.242;2022-08-18T13:51:09;29.30;45.50
21502;DHT22;27639;48.674;9.242;2022-08-18T13:53:37;29.30;45.40
21502;DHT22;27639;48.674;9.242;2022-08-18T13:56:04;29.30;45.30
21502;DHT22;27639;48.674;9.242;2022-08-18T13:58:30;29.30;45.40
21502;DHT22;27639;48.674;9.242;2022-08-18T14:00:58;29.30;45.30
21502;DHT22;27639;48.674;9.242;2022-08-18T14:03:25;29.30;45.00
21502;DHT22;27639;48.674;9.242;2022-08-18T14:05:50;29.40;45.60
21502;DHT22;27639;48.674;9.242;2022-08-18T14:08:18;29.40;44.80
21502;DHT22;27639;48.674;9.242;2022-08-18T14:10:51;29.40;44.80
21502;DHT22;27639;48.674;9.242;2022-08-18T14:13:16;29.40;44.90
21502;DHT22;27639;48.674;9.242;2022-08-18T14:15:44;29.50;45.10
21502;DHT22;27639;48.674;9.242;2022-08-18T14:18:10;29.50;44.70
21502;DHT22;27639;48.674;9.242;2022-08-18T14:20:36;29.60;44.60
21502;DHT22;27639;48.674;9.242;2022-08-18T14:23:20;29.60;44.40
21502;DHT22;27639;48.674;9.242;2022-08-18T14:26:04;29.60;44.70
21502;DHT22;27639;48.674;9.242;2022-08-18T14:28:48;29.60;44.70
21502;DHT22;27639;48.674;9.242;2022-08-18T14:31:15;29.60;44.80
21502;DHT22;27639;48.674;9.242;2022-08-18T14:33:43;29.60;44.90
21502;DHT22;27639;48.674;9.242;2022-08-18T14:36:09;29.70;44.80
21502;DHT22;27639;48.674;9.242;2022-08-18T14:38:34;29.70;44.50
21502;DHT22;27639;48.674;9.242;2022-08-18T14:41:04;29.70;44.50
21502;DHT22;27639;48.674;9.242;2022-08-18T14:43:30;29.80;44.50
21502;DHT22;27639;48.674;9.242;2022-08-18T14:45:56;29.80;44.40
21502;DHT22;27639;48.674;9.242;2022-08-18T14:48:21;29.80;44.30
21502;DHT22;27639;48.674;9.242;2022-08-18T14:50:50;29.80;44.10
21502;DHT22;27639;48.674;9.242;2022-08-18T14:53:21;29.80;43.90
21502;DHT22;27639;48.674;9.242;2022-08-18T14:55:49;29.90;43.90
21502;DHT22;27639;48.674;9.242;2022-08-18T14:58:18;29.90;43.80
21502;DHT22;27639;48.674;9.242;2022-08-18T15:00:43;29.90;43.80
21502;DHT22;27639;48.674;9.242;2022-08-18T15:03:09;30.00;43.90
21502;DHT22;27639;48.674;9.242;2022-08-18T15:05:35;30.00;43.50
21502;DHT22;27639;48.674;9.242;2022-08-18T15:08:02;30.00;43.30
21502;DHT22;27639;48.674;9.242;2022-08-18T15:10:31;30.00;42.90
21502;DHT22;27639;48.674;9.242;2022-08-18T15:12:57;29.90;42.90
21502;DHT22;27639;48.674;9.242;2022-08-18T15:15:25;29.90;42.80
21502;DHT22;27639;48.674;9.242;2022-08-18T15:17:50;29.90;42.60
21502;DHT22;27639;48.674;9.242;2022-08-18T15:20:16;29.80;42.60
21502;DHT22;27639;48.674;9.242;2022-08-18T15:22:44;29.80;42.90
21502;DHT22;27639;48.674;9.242;2022-08-18T15:25:29;29.70;42.80
21502;DHT22;27639;48.674;9.242;2022-08-18T15:28:10;29.70;42.90
21502;DHT22;27639;48.674;9.242;2022-08-18T15:30:36;29.70;43.10
21502;DHT22;27639;48.674;9.242;2022-08-18T15:33:03;29.80;43.00
21502;DHT22;27639;48.674;9.242;2022-08-18T15:35:30;29.80;43.00
21502;DHT22;27639;48.674;9.242;2022-08-18T15:37:55;29.80;42.80
21502;DHT22;27639;48.674;9.242;2022-08-18T15:40:24;29.80;42.60
21502;DHT22;27639;48.674;9.242;2022-08-18T15:42:52;29.80;42.60
21502;DHT22;27639;48.674;9.242;2022-08-18T15:45:23;29.80;42.60
21502;DHT22;27639;48.674;9.242;2022-08-18T15:47:54;29.80;42.60
21502;DHT22;27639;48.674;9.242;2022-08-18T15:50:20;29.80;42.60
21502;DHT22;27639;48.674;9.242;2022-08-18T15:52:52;29.70;42.80
21502;DHT22;27639;48.674;9.242;2022-08-18T15:55:20;29.70;42.90
21502;DHT22;27639;48.674;9.242;2022-08-18T15:57:47;29.70;42.90
21502;DHT22;27639;48.674;9.242;2022-08-18T16:00:15;29.70;42.90
21502;DHT22;27639;48.674;9.242;2022-08-18T16:02:54;29.70;43.10
21502;DHT22;27639;48.674;9.242;2022-08-18T16:05:25;29.70;42.80
21502;DHT22;27639;48.674;9.242;2022-08-18T16:07:52;29.60;42.90
21502;DHT22;27639;48.674;9.242;2022-08-18T16:10:21;29.60;42.80
21502;DHT22;27639;48.674;9.242;2022-08-18T16:12:47;29.50;42.70
21502;DHT22;27639;48.674;9.242;2022-08-18T16:15:14;29.50;42.80
21502;DHT22;27639;48.674;9.242;2022-08-18T16:17:41;29.60;43.00
21502;DHT22;27639;48.674;9.242;2022-08-18T16:20:07;29.60;42.90
21502;DHT22;27639;48.674;9.242;2022-08-18T16:22:34;29.50;42.90
21502;DHT22;27639;48.674;9.242;2022-08-18T16:25:02;29.60;42.80
21502;DHT22;27639;48.674;9.242;2022-08-18T16:27:29;29.50;42.90
21502;DHT22;27639;48.674;9.242;2022-08-18T16:29:55;29.50;43.10
21502;DHT22;27639;48.674;9.242;2022-08-18T16:32:21;29.50;43.10
21502;DHT22;27639;48.674;9.242;2022-08-18T16:34:47;29.50;43.10
21502;DHT22;27639;48.674;9.242;2022-08-18T16:37:13;29.50;43.20
21502;DHT22;27639;48.674;9.242;2022-08-18T16:39:39;29.50;43.30
21502;DHT22;27639;48.674;9.242;2022-08-18T16:42:04;29.40;43.20
21502;DHT22;27639;48.674;9.242;2022-08-18T16:44:31;29.40;43.30
21502;DHT22;27639;48.674;9.242;2022-08-18T16:46:58;29.50;43.30
21502;DHT22;27639;48.674;9.242;2022-08-18T16:49:26;29.40;43.20
21502;DHT22;27639;48.674;9.242;2022-08-18T16:51:52;29.40;43.30
21502;DHT22;27639;48.674;9.242;2022-08-18T16:54:17;29.40;43.30
21502;DHT22;27639;48.674;9.242;2022-08-18T16:56:43;29.40;43.40
21502;DHT22;27639;48.674;9.242;2022-08-18T16:59:08;29.30;43.30
21502;DHT22;27639;48.674;9.242;2022-08-18T17:01:53;29.30;43.40
21502;DHT22;27639;48.674;9.242;2022-08-18T17:04:48;29.30;43.50
21502;DHT22;27639;48.674;9.242;2022-08-18T17:07:15;29.20;43.50
21502;DHT22;27639;48.674;9.242;2022-08-18T17:09:41;29.20;43.40
21502;DHT22;27639;48.674;9.242;2022-08-18T17:12:07;29.20;43.30
21502;DHT22;27639;48.674;9.242;2022-08-18T17:14:32;29.20;43.30
21502;DHT22;27639;48.674;9.242;2022-08-18T17:16:59;29.20;43.30
21502;DHT22;27639;48.674;9.242;2022-08-18T17:19:28;29.10;43.40
21502;DHT22;27639;48.674;9.242;2022-08-18T17:21:54;29.10;43.60
21502;DHT22;27639;48.674;9.242;2022-08-18T17:24:20;29.00;43.70
21502;DHT22;27639;48.674;9.242;2022-08-18T17:30:05;28.90;44.00
21502;DHT22;27639;48.674;9.242;2022-08-18T17:32:45;28.90;44.60
21502;DHT22;27639;48.674;9.242;2022-08-18T17:35:16;28.80;44.80
21502;DHT22;27639;48.674;9.242;2022-08-18T17:37:50;28.70;45.10
21502;DHT22;27639;48.674;9.242;2022-08-18T17:40:45;28.60;45.40
21502;DHT22;27639;48.674;9.242;2022-08-18T17:43:18;28.60;45.60
21502;DHT22;27639;48.674;9.242;2022-08-18T17:45:51;28.50;45.70
21502;DHT22;27639;48.674;9.242;2022-08-18T17:48:31;28.50;45.70
21502;DHT22;27639;48.674;9.242;2022-08-18T17:51:05;28.40;46.00
21502;DHT22;27639;48.674;9.242;2022-08-18T17:53:51;28.40;46.10
21502;DHT22;27639;48.674;9.242;2022-08-18T17:56:28;28.30;46.40
21502;DHT22;27639;48.674;9.242;2022-08-18T17:58:59;28.30;46.40
21502;DHT22;27639;48.674;9.242;2022-08-18T18:01:28;28.30;46.60
21502;DHT22;27639;48.674;9.242;2022-08-18T18:03:56;28.20;46.80
21502;DHT22;27639;48.674;9.242;2022-08-18T18:09:11;28.20;46.80
21502;DHT22;27639;48.674;9.242;2022-08-18T18:11:52;28.10;46.90
21502;DHT22;27639;48.674;9.242;2022-08-18T18:14:33;28.00;47.10
21502;DHT22;27639;48.674;9.242;2022-08-18T18:17:23;27.90;47.20
21502;DHT22;27639;48.674;9.242;2022-08-18T18:19:54;27.90;47.30
21502;DHT22;27639;48.674;9.242;2022-08-18T18:22:23;27.90;48.00
21502;DHT22;27639;48.674;9.242;2022-08-18T18:24:56;27.90;47.50
21502;DHT22;27639;48.674;9.242;2022-08-18T18:32:32;27.70;47.70
21502;DHT22;27639;48.674;9.242;2022-08-18T18:35:21;27.70;47.80
21502;DHT22;27639;48.674;9.242;2022-08-18T18:38:30;27.70;47.90
21502;DHT22;27639;48.674;9.242;2022-08-18T18:43:34;27.60;48.10